sensor_id;sensor_type;location;lat;lon;timestamp;pressure;altitude;pressure_sealevel;temperature;humidity
45345;BME280;31078;48.304;11.896;2023-05-07T00:00:07;96229.81;;;13.47;91.49
45345;BME280;31078;48.304;11.896;2023-05-07T00:02:34;96233.22;;;13.44;91.57
45345;BME280;31078;48.304;11.896;2023-05-07T00:05:02;96234.56;;;13.38;91.89
45345;BME280;31078;48.304;11.896;2023-05-07T00:07:29;96234.91;;;13.36;92.06
45345;BME280;31078;48.304;11.896;2023-05-07T00:09:55;96243.22;;;13.27;92.12
45345;BME280;31078;48.304;11.896;2023-05-07T00:12:22;96236.16;;;13.26;92.27
45345;BME280;31078;48.304;11.896;2023-05-07T00:14:48;96234.56;;;13.04;92.88
45345;BME280;31078;48.304;11.896;2023-05-07T00:17:15;96238.78;;;13.02;92.88
45345;BME280;31078;48.304;11.896;2023-05-07T00:19:41;96239.63;;;12.94;93.20
45345;BME280;31078;48.304;11.896;2023-05-07T00:22:09;96234.44;;;13.01;93.00
45345;BME280;31078;48.304;11.896;2023-05-07T00:24:35;96233.84;;;12.95;93.21
45345;BME280;31078;48.304;11.896;2023-05-07T00:27:02;96240.31;;;12.91;93.58
45345;BME280;31078;48.304;11.896;2023-05-07T00:29:28;96225.75;;;12.99;93.81
45345;BME280;31078;48.304;11.896;2023-05-07T00:31:55;96232.63;;;13.05;93.46
45345;BME280;31078;48.304;11.896;2023-05-07T00:34:21;96224.91;;;13.07;93.33
45345;BME280;31078;48.304;11.896;2023-05-07T00:36:48;96227.84;;;13.02;93.55
45345;BME280;31078;48.304;11.896;2023-05-07T00:39:16;96222.38;;;13.02;93.22
45345;BME280;31078;48.304;11.896;2023-05-07T00:41:42;96218.63;;;13.06;93.51
45345;BME280;31078;48.304;11.896;2023-05-07T00:44:09;96229.22;;;13.08;93.84
45345;BME280;31078;48.304;11.896;2023-05-07T00:46:35;96217.13;;;13.09;93.47
45345;BME280;31078;48.304;11.896;2023-05-07T00:49:02;96210.28;;;13.03;94.05
45345;BME280;31078;48.304;11.896;2023-05-07T00:51:29;96210.28;;;13.03;93.78
45345;BME280;31078;48.304;11.896;2023-05-07T00:53:56;96212.56;;;13.01;93.71
45345;BME280;31078;48.304;11.896;2023-05-07T00:56:24;96208.31;;;12.91;94.01
45345;BME280;31078;48.304;11.896;2023-05-07T00:58:51;96202.31;;;12.98;93.83
45345;BME280;31078;48.304;11.896;2023-05-07T01:01:17;96209.38;;;12.99;93.36
45345;BME280;31078;48.304;11.896;2023-05-07T01:03:44;96208.69;;;13.02;93.30
45345;BME280;31078;48.304;11.896;2023-05-07T01:06:12;96203.22;;;13.02;93.40
45345;BME280;31078;48.304;11.896;2023-05-07T01:08:42;96213.72;;;13.00;93.24
45345;BME280;31078;48.304;11.896;2023-05-07T01:11:09;96206.19;;;12.97;92.69
45345;BME280;31078;48.304;11.896;2023-05-07T01:13:39;96209.56;;;12.94;92.61
45345;BME280;31078;48.304;11.896;2023-05-07T01:16:06;96217.78;;;12.94;92.56
45345;BME280;31078;48.304;11.896;2023-05-07T01:18:33;96215.84;;;12.94;92.58
45345;BME280;31078;48.304;11.896;2023-05-07T01:21:01;96223.72;;;12.96;93.43
45345;BME280;31078;48.304;11.896;2023-05-07T01:23:32;96226.06;;;12.85;93.25
45345;BME280;31078;48.304;11.896;2023-05-07T01:26:00;96223.53;;;12.80;93.39
45345;BME280;31078;48.304;11.896;2023-05-07T01:28:27;96223.25;;;12.73;93.21
45345;BME280;31078;48.304;11.896;2023-05-07T01:30:55;96222.75;;;12.79;93.41
45345;BME280;31078;48.304;11.896;2023-05-07T01:33:23;96220.25;;;12.87;94.22
45345;BME280;31078;48.304;11.896;2023-05-07T01:35:52;96222.66;;;12.88;94.75
45345;BME280;31078;48.304;11.896;2023-05-07T01:38:21;96205.88;;;12.77;94.50
45345;BME280;31078;48.304;11.896;2023-05-07T01:40:50;96210.69;;;12.80;94.01
45345;BME280;31078;48.304;11.896;2023-05-07T01:43:17;96204.88;;;12.82;93.08
45345;BME280;31078;48.304;11.896;2023-05-07T01:45:44;96209.53;;;12.82;92.84
45345;BME280;31078;48.304;11.896;2023-05-07T01:48:11;96202.69;;;12.75;93.39
45345;BME280;31078;48.304;11.896;2023-05-07T01:50:39;96206.34;;;12.79;93.47
45345;BME280;31078;48.304;11.896;2023-05-07T01:53:06;96207.94;;;12.80;93.58
45345;BME280;31078;48.304;11.896;2023-05-07T01:55:32;96208.75;;;12.81;93.74
45345;BME280;31078;48.304;11.896;2023-05-07T01:58:00;96201.69;;;12.80;93.54
45345;BME280;31078;48.304;11.896;2023-05-07T02:00:27;96204.94;;;12.73;93.56
45345;BME280;31078;48.304;11.896;2023-05-07T02:02:54;96204.94;;;12.73;93.41
45345;BME280;31078;48.304;11.896;2023-05-07T02:05:20;96209.28;;;12.74;93.55
45345;BME280;31078;48.304;11.896;2023-05-07T02:07:47;96208.50;;;12.74;93.35
45345;BME280;31078;48.304;11.896;2023-05-07T02:10:13;96211.69;;;12.76;93.08
45345;BME280;31078;48.304;11.896;2023-05-07T02:12:40;96209.94;;;12.71;93.10
45345;BME280;31078;48.304;11.896;2023-05-07T02:15:10;96209.81;;;12.68;92.63
45345;BME280;31078;48.304;11.896;2023-05-07T02:17:39;96215.16;;;12.64;92.41
45345;BME280;31078;48.304;11.896;2023-05-07T02:20:23;96216.28;;;12.63;92.52
45345;BME280;31078;48.304;11.896;2023-05-07T02:22:50;96213.53;;;12.63;92.73
45345;BME280;31078;48.304;11.896;2023-05-07T02:25:16;96217.41;;;12.62;93.14
45345;BME280;31078;48.304;11.896;2023-05-07T02:27:42;96224.00;;;12.61;93.39
45345;BME280;31078;48.304;11.896;2023-05-07T02:30:11;96227.44;;;12.58;93.51
45345;BME280;31078;48.304;11.896;2023-05-07T02:32:38;96221.03;;;12.54;93.36
45345;BME280;31078;48.304;11.896;2023-05-07T02:35:05;96213.16;;;12.52;92.74
45345;BME280;31078;48.304;11.896;2023-05-07T02:37:31;96215.44;;;12.50;93.02
45345;BME280;31078;48.304;11.896;2023-05-07T02:39:58;96215.44;;;12.50;93.15
45345;BME280;31078;48.304;11.896;2023-05-07T02:42:24;96217.03;;;12.51;93.52
45345;BME280;31078;48.304;11.896;2023-05-07T02:44:51;96219.44;;;12.53;94.45
45345;BME280;31078;48.304;11.896;2023-05-07T02:47:19;96224.91;;;12.53;94.58
45345;BME280;31078;48.304;11.896;2023-05-07T02:49:45;96226.00;;;12.52;94.15
45345;BME280;31078;48.304;11.896;2023-05-07T02:52:12;96215.44;;;12.50;93.65
45345;BME280;31078;48.304;11.896;2023-05-07T02:54:38;96214.19;;;12.48;93.78
45345;BME280;31078;48.304;11.896;2023-05-07T02:57:05;96213.34;;;12.47;93.39
45345;BME280;31078;48.304;11.896;2023-05-07T02:59:31;96214.38;;;12.43;93.37
45345;BME280;31078;48.304;11.896;2023-05-07T03:01:58;96208.44;;;12.41;93.19
45345;BME280;31078;48.304;11.896;2023-05-07T03:04:26;96208.44;;;12.41;93.10
45345;BME280;31078;48.304;11.896;2023-05-07T03:06:52;96208.44;;;12.41;93.32
45345;BME280;31078;48.304;11.896;2023-05-07T03:09:19;96205.16;;;12.26;93.38
45345;BME280;31078;48.304;11.896;2023-05-07T03:11:45;96210.63;;;12.26;93.50
45345;BME280;31078;48.304;11.896;2023-05-07T03:14:12;96202.75;;;12.25;93.43
45345;BME280;31078;48.304;11.896;2023-05-07T03:16:39;96211.56;;;12.31;94.23
45345;BME280;31078;48.304;11.896;2023-05-07T03:19:05;96209.31;;;12.33;93.87
45345;BME280;31078;48.304;11.896;2023-05-07T03:21:33;96217.00;;;12.31;93.62
45345;BME280;31078;48.304;11.896;2023-05-07T03:24:00;96212.22;;;12.27;93.56
45345;BME280;31078;48.304;11.896;2023-05-07T03:26:26;96210.63;;;12.26;93.08
45345;BME280;31078;48.304;11.896;2023-05-07T03:28:53;96218.81;;;12.26;93.51
45345;BME280;31078;48.304;11.896;2023-05-07T03:31:20;96218.34;;;12.24;93.44
45345;BME280;31078;48.304;11.896;2023-05-07T03:33:50;96218.34;;;12.24;93.66
45345;BME280;31078;48.304;11.896;2023-05-07T03:36:17;96217.22;;;12.25;94.44
45345;BME280;31078;48.304;11.896;2023-05-07T03:38:45;96217.56;;;12.24;94.28
45345;BME280;31078;48.304;11.896;2023-05-07T03:41:12;96217.41;;;12.20;93.79
45345;BME280;31078;48.304;11.896;2023-05-07T03:43:38;96223.19;;;12.19;93.83
45345;BME280;31078;48.304;11.896;2023-05-07T03:46:05;96211.03;;;12.16;93.85
45345;BME280;31078;48.304;11.896;2023-05-07T03:48:31;96212.81;;;12.12;93.98
45345;BME280;31078;48.304;11.896;2023-05-07T03:50:58;96208.59;;;11.94;94.74
45345;BME280;31078;48.304;11.896;2023-05-07T03:53:25;96205.91;;;11.85;95.72
45345;BME280;31078;48.304;11.896;2023-05-07T03:55:53;96204.06;;;11.98;96.06
45345;BME280;31078;48.304;11.896;2023-05-07T03:58:19;96208.19;;;12.04;95.89
45345;BME280;31078;48.304;11.896;2023-05-07T04:00:46;96207.56;;;12.07;96.06
45345;BME280;31078;48.304;11.896;2023-05-07T04:03:12;96214.47;;;12.05;95.76
45345;BME280;31078;48.304;11.896;2023-05-07T04:05:39;96223.94;;;12.07;96.02
45345;BME280;31078;48.304;11.896;2023-05-07T04:08:05;96224.38;;;12.09;96.20
45345;BME280;31078;48.304;11.896;2023-05-07T04:10:31;96228.84;;;12.14;96.41
45345;BME280;31078;48.304;11.896;2023-05-07T04:12:59;96225.31;;;12.13;95.49
45345;BME280;31078;48.304;11.896;2023-05-07T04:15:26;96236.25;;;12.13;95.60
45345;BME280;31078;48.304;11.896;2023-05-07T04:17:52;96238.56;;;12.02;95.11
45345;BME280;31078;48.304;11.896;2023-05-07T04:20:19;96240.69;;;11.97;94.68
45345;BME280;31078;48.304;11.896;2023-05-07T04:22:45;96232.69;;;11.92;94.64
45345;BME280;31078;48.304;11.896;2023-05-07T04:25:11;96237.94;;;11.97;94.55
45345;BME280;31078;48.304;11.896;2023-05-07T04:27:38;96242.09;;;12.03;94.92
45345;BME280;31078;48.304;11.896;2023-05-07T04:30:07;96246.41;;;12.04;94.76
45345;BME280;31078;48.304;11.896;2023-05-07T04:32:34;96249.44;;;12.11;95.19
45345;BME280;31078;48.304;11.896;2023-05-07T04:35:01;96256.19;;;12.05;94.62
45345;BME280;31078;48.304;11.896;2023-05-07T04:37:28;96251.22;;;12.07;94.42
45345;BME280;31078;48.304;11.896;2023-05-07T04:39:54;96248.94;;;12.09;94.27
45345;BME280;31078;48.304;11.896;2023-05-07T04:42:20;96248.50;;;12.07;94.60
45345;BME280;31078;48.304;11.896;2023-05-07T04:44:52;96247.34;;;12.08;94.69
45345;BME280;31078;48.304;11.896;2023-05-07T04:47:20;96251.34;;;12.11;94.69
45345;BME280;31078;48.304;11.896;2023-05-07T04:49:46;96245.22;;;12.14;94.67
45345;BME280;31078;48.304;11.896;2023-05-07T04:52:13;96246.53;;;12.16;94.65
45345;BME280;31078;48.304;11.896;2023-05-07T04:54:40;96250.53;;;12.10;94.58
45345;BME280;31078;48.304;11.896;2023-05-07T04:57:06;96249.69;;;12.18;95.11
45345;BME280;31078;48.304;11.896;2023-05-07T04:59:33;96248.56;;;12.19;95.45
45345;BME280;31078;48.304;11.896;2023-05-07T05:02:00;96246.28;;;12.21;95.35
45345;BME280;31078;48.304;11.896;2023-05-07T05:04:28;96243.38;;;12.26;95.00
45345;BME280;31078;48.304;11.896;2023-05-07T05:06:54;96247.84;;;12.31;94.83
45345;BME280;31078;48.304;11.896;2023-05-07T05:09:21;96251.19;;;12.37;94.49
45345;BME280;31078;48.304;11.896;2023-05-07T05:11:47;96258.06;;;12.43;94.15
45345;BME280;31078;48.304;11.896;2023-05-07T05:14:14;96252.59;;;12.43;94.20
45345;BME280;31078;48.304;11.896;2023-05-07T05:16:40;96255.66;;;12.41;93.54
45345;BME280;31078;48.304;11.896;2023-05-07T05:19:06;96257.53;;;12.49;93.08
45345;BME280;31078;48.304;11.896;2023-05-07T05:21:34;96262.13;;;12.58;93.48
45345;BME280;31078;48.304;11.896;2023-05-07T05:24:01;96260.22;;;12.58;93.41
45345;BME280;31078;48.304;11.896;2023-05-07T05:26:27;96255.00;;;12.65;93.11
45345;BME280;31078;48.304;11.896;2023-05-07T05:28:54;96272.72;;;12.59;93.01
45345;BME280;31078;48.304;11.896;2023-05-07T05:31:20;96258.88;;;12.64;93.21
45345;BME280;31078;48.304;11.896;2023-05-07T05:33:47;96261.84;;;12.71;92.71
45345;BME280;31078;48.304;11.896;2023-05-07T05:36:13;96256.78;;;12.61;93.31
45345;BME280;31078;48.304;11.896;2023-05-07T05:38:41;96253.47;;;12.76;93.01
45345;BME280;31078;48.304;11.896;2023-05-07T05:41:07;96257.94;;;12.81;93.10
45345;BME280;31078;48.304;11.896;2023-05-07T05:43:34;96259.91;;;12.93;92.99
45345;BME280;31078;48.304;11.896;2023-05-07T05:46:00;96249.13;;;12.96;93.11
45345;BME280;31078;48.304;11.896;2023-05-07T05:48:28;96259.91;;;12.93;93.38
45345;BME280;31078;48.304;11.896;2023-05-07T05:50:55;96251.44;;;13.06;93.15
45345;BME280;31078;48.304;11.896;2023-05-07T05:53:22;96251.47;;;13.19;92.82
45345;BME280;31078;48.304;11.896;2023-05-07T05:55:50;96237.75;;;13.27;93.53
45345;BME280;31078;48.304;11.896;2023-05-07T05:58:16;96247.41;;;13.25;93.53
45345;BME280;31078;48.304;11.896;2023-05-07T06:00:43;96252.66;;;13.30;94.15
45345;BME280;31078;48.304;11.896;2023-05-07T06:03:10;96248.13;;;13.34;94.25
45345;BME280;31078;48.304;11.896;2023-05-07T06:05:37;96255.31;;;13.39;94.56
45345;BME280;31078;48.304;11.896;2023-05-07T06:08:03;96254.88;;;13.49;94.18
45345;BME280;31078;48.304;11.896;2023-05-07T06:10:30;96252.97;;;13.62;93.96
45345;BME280;31078;48.304;11.896;2023-05-07T06:12:58;96249.47;;;13.73;93.57
45345;BME280;31078;48.304;11.896;2023-05-07T06:15:24;96252.06;;;13.82;93.41
45345;BME280;31078;48.304;11.896;2023-05-07T06:17:50;96250.59;;;13.97;93.18
45345;BME280;31078;48.304;11.896;2023-05-07T06:20:17;96252.19;;;13.98;94.01
45345;BME280;31078;48.304;11.896;2023-05-07T06:22:43;96251.50;;;14.13;93.89
45345;BME280;31078;48.304;11.896;2023-05-07T06:25:10;96251.97;;;14.27;93.69
45345;BME280;31078;48.304;11.896;2023-05-07T06:27:36;96254.47;;;14.32;93.18
45345;BME280;31078;48.304;11.896;2023-05-07T06:30:07;96262.81;;;14.36;93.03
45345;BME280;31078;48.304;11.896;2023-05-07T06:32:33;96252.41;;;14.42;92.12
45345;BME280;31078;48.304;11.896;2023-05-07T06:35:00;96253.91;;;14.51;91.82
45345;BME280;31078;48.304;11.896;2023-05-07T06:37:26;96261.97;;;14.72;91.23
45345;BME280;31078;48.304;11.896;2023-05-07T06:39:53;96257.97;;;14.70;91.31
45345;BME280;31078;48.304;11.896;2023-05-07T06:42:19;96270.81;;;14.81;90.82
45345;BME280;31078;48.304;11.896;2023-05-07T06:44:46;96261.88;;;14.97;90.20
45345;BME280;31078;48.304;11.896;2023-05-07T06:47:13;96270.50;;;15.11;89.40
45345;BME280;31078;48.304;11.896;2023-05-07T06:49:40;96268.66;;;15.15;88.83
45345;BME280;31078;48.304;11.896;2023-05-07T06:52:06;96272.94;;;15.28;88.24
45345;BME280;31078;48.304;11.896;2023-05-07T06:54:33;96275.81;;;15.48;87.77
45345;BME280;31078;48.304;11.896;2023-05-07T06:56:59;96279.63;;;15.43;86.20
45345;BME280;31078;48.304;11.896;2023-05-07T06:59:26;96281.81;;;15.37;84.75
45345;BME280;31078;48.304;11.896;2023-05-07T07:01:52;96285.81;;;15.40;85.63
45345;BME280;31078;48.304;11.896;2023-05-07T07:04:21;96284.44;;;15.62;85.17
45345;BME280;31078;48.304;11.896;2023-05-07T07:06:48;96284.38;;;15.74;85.51
45345;BME280;31078;48.304;11.896;2023-05-07T07:09:14;96282.28;;;15.83;85.05
45345;BME280;31078;48.304;11.896;2023-05-07T07:11:41;96282.38;;;16.03;83.46
45345;BME280;31078;48.304;11.896;2023-05-07T07:14:07;96286.59;;;16.16;82.59
45345;BME280;31078;48.304;11.896;2023-05-07T07:16:33;96284.75;;;16.20;81.84
45345;BME280;31078;48.304;11.896;2023-05-07T07:19:00;96292.00;;;16.28;81.49
45345;BME280;31078;48.304;11.896;2023-05-07T07:21:28;96294.16;;;16.54;80.97
45345;BME280;31078;48.304;11.896;2023-05-07T07:23:55;96286.44;;;16.60;80.70
45345;BME280;31078;48.304;11.896;2023-05-07T07:26:21;96292.91;;;16.67;79.11
45345;BME280;31078;48.304;11.896;2023-05-07T07:28:48;96293.19;;;16.78;77.99
45345;BME280;31078;48.304;11.896;2023-05-07T07:31:14;96288.13;;;17.00;77.78
45345;BME280;31078;48.304;11.896;2023-05-07T07:33:41;96292.34;;;17.13;77.44
45345;BME280;31078;48.304;11.896;2023-05-07T07:36:07;96287.06;;;17.24;76.24
45345;BME280;31078;48.304;11.896;2023-05-07T07:38:35;96285.41;;;17.38;76.08
45345;BME280;31078;48.304;11.896;2023-05-07T07:41:02;96291.19;;;17.33;73.28
45345;BME280;31078;48.304;11.896;2023-05-07T07:43:28;96285.66;;;17.53;74.01
45345;BME280;31078;48.304;11.896;2023-05-07T07:45:55;96281.81;;;17.77;73.01
45345;BME280;31078;48.304;11.896;2023-05-07T07:48:21;96280.91;;;17.92;73.27
45345;BME280;31078;48.304;11.896;2023-05-07T07:50:48;96283.38;;;18.23;70.57
45345;BME280;31078;48.304;11.896;2023-05-07T07:53:15;96284.94;;;19.00;67.02
45345;BME280;31078;48.304;11.896;2023-05-07T07:55:43;96285.66;;;20.43;61.68
45345;BME280;31078;48.304;11.896;2023-05-07T07:58:09;96291.56;;;22.01;57.44
45345;BME280;31078;48.304;11.896;2023-05-07T08:00:36;96290.03;;;22.72;54.43
45345;BME280;31078;48.304;11.896;2023-05-07T08:03:02;96288.38;;;23.06;53.60
45345;BME280;31078;48.304;11.896;2023-05-07T08:05:30;96285.22;;;23.04;50.92
45345;BME280;31078;48.304;11.896;2023-05-07T08:07:56;96284.81;;;23.13;52.15
45345;BME280;31078;48.304;11.896;2023-05-07T08:10:23;96287.63;;;22.99;52.99
45345;BME280;31078;48.304;11.896;2023-05-07T08:12:51;96285.25;;;22.83;53.66
45345;BME280;31078;48.304;11.896;2023-05-07T08:15:18;96289.22;;;22.89;52.91
45345;BME280;31078;48.304;11.896;2023-05-07T08:17:44;96292.78;;;22.93;54.82
45345;BME280;31078;48.304;11.896;2023-05-07T08:20:11;96292.41;;;22.48;53.06
45345;BME280;31078;48.304;11.896;2023-05-07T08:22:37;96287.63;;;22.59;54.30
45345;BME280;31078;48.304;11.896;2023-05-07T08:25:04;96289.13;;;23.17;53.69
45345;BME280;31078;48.304;11.896;2023-05-07T08:27:31;96293.63;;;23.88;52.89
45345;BME280;31078;48.304;11.896;2023-05-07T08:29:59;96292.97;;;23.52;50.80
45345;BME280;31078;48.304;11.896;2023-05-07T08:32:25;96287.41;;;23.52;54.45
45345;BME280;31078;48.304;11.896;2023-05-07T08:34:52;96292.22;;;23.44;52.41
45345;BME280;31078;48.304;11.896;2023-05-07T08:37:19;96295.91;;;23.09;53.04
45345;BME280;31078;48.304;11.896;2023-05-07T08:39:46;96286.41;;;23.03;54.73
45345;BME280;31078;48.304;11.896;2023-05-07T08:42:12;96292.38;;;22.98;54.08
45345;BME280;31078;48.304;11.896;2023-05-07T08:44:41;96290.72;;;23.26;53.06
45345;BME280;31078;48.304;11.896;2023-05-07T08:47:10;96282.78;;;23.17;52.18
45345;BME280;31078;48.304;11.896;2023-05-07T08:49:36;96287.56;;;23.24;54.22
45345;BME280;31078;48.304;11.896;2023-05-07T08:52:03;96287.50;;;23.27;51.52
45345;BME280;31078;48.304;11.896;2023-05-07T08:54:30;96296.75;;;22.74;52.98
45345;BME280;31078;48.304;11.896;2023-05-07T08:56:57;96292.78;;;22.79;53.33
45345;BME280;31078;48.304;11.896;2023-05-07T08:59:24;96289.63;;;22.62;54.53
45345;BME280;31078;48.304;11.896;2023-05-07T09:01:51;96291.22;;;22.49;56.23
45345;BME280;31078;48.304;11.896;2023-05-07T09:04:19;96294.00;;;22.35;56.27
45345;BME280;31078;48.304;11.896;2023-05-07T09:06:45;96293.19;;;22.24;54.56
45345;BME280;31078;48.304;11.896;2023-05-07T09:09:14;96292.38;;;22.09;54.40
45345;BME280;31078;48.304;11.896;2023-05-07T09:11:42;96297.91;;;22.05;52.06
45345;BME280;31078;48.304;11.896;2023-05-07T09:14:09;96304.28;;;22.17;52.86
45345;BME280;31078;48.304;11.896;2023-05-07T09:16:35;96303.84;;;22.07;51.76
45345;BME280;31078;48.304;11.896;2023-05-07T09:19:02;96300.28;;;22.03;50.83
45345;BME280;31078;48.304;11.896;2023-05-07T09:21:30;96303.47;;;22.12;53.77
45345;BME280;31078;48.304;11.896;2023-05-07T09:23:56;96301.06;;;22.07;52.97
45345;BME280;31078;48.304;11.896;2023-05-07T09:26:24;96309.44;;;22.14;50.00
45345;BME280;31078;48.304;11.896;2023-05-07T09:28:53;96309.81;;;22.24;50.05
45345;BME280;31078;48.304;11.896;2023-05-07T09:31:19;96302.72;;;22.16;51.94
45345;BME280;31078;48.304;11.896;2023-05-07T09:33:48;96307.88;;;22.21;50.07
45345;BME280;31078;48.304;11.896;2023-05-07T09:36:15;96295.97;;;22.42;52.96
45345;BME280;31078;48.304;11.896;2023-05-07T09:38:43;96298.78;;;22.34;51.94
45345;BME280;31078;48.304;11.896;2023-05-07T09:41:12;96295.19;;;22.41;50.19
45345;BME280;31078;48.304;11.896;2023-05-07T09:43:39;96305.47;;;22.44;52.16
45345;BME280;31078;48.304;11.896;2023-05-07T09:46:08;96291.63;;;22.48;52.56
45345;BME280;31078;48.304;11.896;2023-05-07T09:48:39;96297.97;;;22.37;50.82
45345;BME280;31078;48.304;11.896;2023-05-07T09:51:21;96282.09;;;22.52;52.39
45345;BME280;31078;48.304;11.896;2023-05-07T09:53:50;96288.06;;;22.40;51.74
45345;BME280;31078;48.304;11.896;2023-05-07T09:56:19;96293.63;;;22.40;51.98
45345;BME280;31078;48.304;11.896;2023-05-07T09:58:46;96291.63;;;22.26;51.83
45345;BME280;31078;48.304;11.896;2023-05-07T10:01:13;96303.06;;;22.00;52.58
45345;BME280;31078;48.304;11.896;2023-05-07T10:03:40;96295.16;;;22.12;50.85
45345;BME280;31078;48.304;11.896;2023-05-07T10:06:08;96286.47;;;22.25;51.10
45345;BME280;31078;48.304;11.896;2023-05-07T10:08:36;96286.88;;;22.27;51.69
45345;BME280;31078;48.304;11.896;2023-05-07T10:11:04;96286.88;;;22.30;50.78
45345;BME280;31078;48.304;11.896;2023-05-07T10:13:32;96291.22;;;22.56;49.81
45345;BME280;31078;48.304;11.896;2023-05-07T10:16:00;96291.22;;;22.31;47.44
45345;BME280;31078;48.304;11.896;2023-05-07T10:18:26;96299.94;;;22.16;47.60
45345;BME280;31078;48.304;11.896;2023-05-07T10:21:00;96294.78;;;22.14;51.51
45345;BME280;31078;48.304;11.896;2023-05-07T10:23:28;96285.28;;;22.26;48.42
45345;BME280;31078;48.304;11.896;2023-05-07T10:25:56;96288.44;;;22.28;50.14
45345;BME280;31078;48.304;11.896;2023-05-07T10:28:26;96299.94;;;22.23;47.85
45345;BME280;31078;48.304;11.896;2023-05-07T10:31:02;96286.88;;;22.27;48.41
45345;BME280;31078;48.304;11.896;2023-05-07T10:33:34;96288.47;;;22.35;48.66
45345;BME280;31078;48.304;11.896;2023-05-07T10:36:02;96290.81;;;22.47;48.40
45345;BME280;31078;48.304;11.896;2023-05-07T10:38:30;96294.00;;;22.28;45.31
45345;BME280;31078;48.304;11.896;2023-05-07T10:40:57;96293.22;;;22.31;46.23
45345;BME280;31078;48.304;11.896;2023-05-07T10:43:38;96291.56;;;22.01;49.21
45345;BME280;31078;48.304;11.896;2023-05-07T10:46:15;96297.91;;;21.98;43.23
45345;BME280;31078;48.304;11.896;2023-05-07T10:49:10;96296.31;;;21.97;46.38
45345;BME280;31078;48.304;11.896;2023-05-07T10:51:41;96290.78;;;22.04;48.65
45345;BME280;31078;48.304;11.896;2023-05-07T10:54:21;96280.50;;;22.12;51.98
45345;BME280;31078;48.304;11.896;2023-05-07T10:56:48;96278.94;;;22.14;50.16
45345;BME280;31078;48.304;11.896;2023-05-07T10:59:38;96276.56;;;22.17;49.55
45345;BME280;31078;48.304;11.896;2023-05-07T11:02:08;96276.94;;;22.33;50.34
45345;BME280;31078;48.304;11.896;2023-05-07T11:04:36;96282.13;;;22.31;48.19
45345;BME280;31078;48.304;11.896;2023-05-07T11:07:30;96280.50;;;22.44;46.04
45345;BME280;31078;48.304;11.896;2023-05-07T11:10:04;96280.13;;;22.67;48.88
45345;BME280;31078;48.304;11.896;2023-05-07T11:12:54;96286.47;;;22.60;45.59
45345;BME280;31078;48.304;11.896;2023-05-07T11:15:36;96287.25;;;22.72;46.56
45345;BME280;31078;48.304;11.896;2023-05-07T11:18:02;96291.22;;;22.63;47.24
45345;BME280;31078;48.304;11.896;2023-05-07T11:20:50;96277.38;;;22.46;46.49
45345;BME280;31078;48.304;11.896;2023-05-07T11:23:55;96278.16;;;22.25;49.42
45345;BME280;31078;48.304;11.896;2023-05-07T11:26:21;96281.66;;;22.07;49.69
45345;BME280;31078;48.304;11.896;2023-05-07T11:28:48;96285.25;;;22.11;50.14
45345;BME280;31078;48.304;11.896;2023-05-07T11:31:21;96274.19;;;22.19;52.06
45345;BME280;31078;48.304;11.896;2023-05-07T11:33:48;96273.38;;;22.29;49.67
45345;BME280;31078;48.304;11.896;2023-05-07T11:36:15;96274.97;;;22.37;49.43
45345;BME280;31078;48.304;11.896;2023-05-07T11:38:42;96263.09;;;22.40;50.33
45345;BME280;31078;48.304;11.896;2023-05-07T11:41:08;96264.66;;;22.48;49.09
45345;BME280;31078;48.304;11.896;2023-05-07T11:43:35;96259.91;;;22.38;47.24
45345;BME280;31078;48.304;11.896;2023-05-07T11:46:06;96260.72;;;22.35;49.03
45345;BME280;31078;48.304;11.896;2023-05-07T11:48:35;96263.06;;;22.54;49.02
45345;BME280;31078;48.304;11.896;2023-05-07T11:51:03;96268.63;;;22.58;48.43
45345;BME280;31078;48.304;11.896;2023-05-07T11:53:36;96261.47;;;22.67;46.79
45345;BME280;31078;48.304;11.896;2023-05-07T11:56:05;96264.22;;;22.78;50.06
45345;BME280;31078;48.304;11.896;2023-05-07T11:58:32;96259.09;;;22.62;49.37
45345;BME280;31078;48.304;11.896;2023-05-07T12:00:58;96253.56;;;22.45;48.78
45345;BME280;31078;48.304;11.896;2023-05-07T12:03:25;96254.34;;;22.52;48.31
45345;BME280;31078;48.304;11.896;2023-05-07T12:05:53;96250.78;;;22.62;51.02
45345;BME280;31078;48.304;11.896;2023-05-07T12:08:21;96255.16;;;22.31;50.98
45345;BME280;31078;48.304;11.896;2023-05-07T12:10:49;96250.81;;;22.41;48.76
45345;BME280;31078;48.304;11.896;2023-05-07T12:13:16;96259.09;;;22.48;47.62
45345;BME280;31078;48.304;11.896;2023-05-07T12:15:42;96256.72;;;22.61;50.57
45345;BME280;31078;48.304;11.896;2023-05-07T12:18:09;96259.91;;;22.52;48.68
45345;BME280;31078;48.304;11.896;2023-05-07T12:20:36;96259.91;;;22.52;47.14
45345;BME280;31078;48.304;11.896;2023-05-07T12:23:05;96248.81;;;22.45;50.35
45345;BME280;31078;48.304;11.896;2023-05-07T12:25:31;96249.22;;;22.40;49.16
45345;BME280;31078;48.304;11.896;2023-05-07T12:28:00;96257.53;;;22.47;49.82
45345;BME280;31078;48.304;11.896;2023-05-07T12:30:26;96251.22;;;22.39;49.17
45345;BME280;31078;48.304;11.896;2023-05-07T12:32:53;96252.00;;;22.33;46.61
45345;BME280;31078;48.304;11.896;2023-05-07T12:35:26;96246.44;;;22.47;49.73
45345;BME280;31078;48.304;11.896;2023-05-07T12:37:56;96242.47;;;22.41;49.66
45345;BME280;31078;48.304;11.896;2023-05-07T12:40:35;96241.69;;;22.16;45.53
45345;BME280;31078;48.304;11.896;2023-05-07T12:43:02;96243.25;;;22.09;46.43
45345;BME280;31078;48.304;11.896;2023-05-07T12:45:28;96240.03;;;21.75;46.58
45345;BME280;31078;48.304;11.896;2023-05-07T12:47:56;96243.97;;;21.60;47.68
45345;BME280;31078;48.304;11.896;2023-05-07T12:50:22;96241.63;;;21.80;49.82
45345;BME280;31078;48.304;11.896;2023-05-07T12:52:49;96228.97;;;21.79;46.92